createdAt,value
2023-01-18T00:00:41.609Z,97682.59
2023-01-18T00:03:13.494Z,97687.34
2023-01-18T00:05:43.640Z,97689.41
2023-01-18T00:08:17.407Z,97682.19
2023-01-18T00:10:43.817Z,97679.50
2023-01-18T00:13:10.950Z,97675.16
2023-01-18T00:15:38.139Z,97680.31
2023-01-18T00:18:05.262Z,97682.59
2023-01-18T00:20:32.188Z,97676.78
2023-01-18T00:23:01.970Z,97684.84
2023-01-18T00:25:31.097Z,97682.34
2023-01-18T00:27:57.661Z,97683.94
2023-01-18T00:30:27.305Z,97685.00
2023-01-18T00:32:58.433Z,97687.25
2023-01-18T00:35:28.428Z,97687.63
2023-01-18T00:37:57.131Z,97693.81
2023-01-18T00:40:29.172Z,97688.41
2023-01-18T00:43:14.708Z,97685.13
2023-01-18T00:45:42.544Z,97684.88
2023-01-18T00:48:09.369Z,97682.59
2023-01-18T00:50:35.838Z,97687.69
2023-01-18T00:53:02.628Z,97686.03
2023-01-18T00:55:29.149Z,97687.88
2023-01-18T00:57:55.506Z,97682.72
2023-01-18T01:00:23.762Z,97684.13
2023-01-18T01:02:51.621Z,97683.56
2023-01-18T01:05:39.499Z,97680.88
2023-01-18T01:08:06.062Z,97690.91
2023-01-18T01:10:33.571Z,97689.91
2023-01-18T01:13:18.529Z,97694.63
2023-01-18T01:16:03.556Z,97695.28
2023-01-18T01:18:48.555Z,97696.31
2023-01-18T01:21:33.598Z,97702.78
2023-01-18T01:24:18.718Z,97701.38
2023-01-18T01:26:45.126Z,97698.25
2023-01-18T01:29:11.545Z,97701.75
2023-01-18T01:31:40.743Z,97706.91
2023-01-18T01:34:07.456Z,97703.84
2023-01-18T01:36:34.016Z,97711.25
2023-01-18T01:39:00.699Z,97712.25
2023-01-18T01:41:28.447Z,97723.66
2023-01-18T01:44:04.838Z,97723.00
2023-01-18T01:46:44.598Z,97731.31
2023-01-18T01:49:28.324Z,97731.75
2023-01-18T01:51:58.796Z,97733.41
2023-01-18T01:54:30.627Z,97736.91
2023-01-18T01:57:08.217Z,97742.88
2023-01-18T01:59:37.645Z,97744.59
2023-01-18T02:02:05.146Z,97746.22
2023-01-18T02:04:32.836Z,97760.69
2023-01-18T02:06:59.325Z,97764.41
2023-01-18T02:09:26.190Z,97764.00
2023-01-18T02:11:54.582Z,97764.00
2023-01-18T02:14:24.206Z,97769.56
2023-01-18T02:17:15.133Z,97766.06
2023-01-18T02:20:24.278Z,97765.63
2023-01-18T02:23:28.151Z,97779.66
2023-01-18T02:26:22.741Z,97775.13
2023-01-18T02:29:07.106Z,97778.78
2023-01-18T02:31:41.125Z,97792.03
2023-01-18T02:34:13.574Z,97794.06
2023-01-18T02:36:58.439Z,97796.75
2023-01-18T02:39:42.171Z,97792.38
2023-01-18T02:42:39.279Z,97797.75
2023-01-18T02:45:35.812Z,97802.50
2023-01-18T02:48:06.031Z,97799.00
2023-01-18T02:50:32.801Z,97803.34
2023-01-18T02:53:01.761Z,97801.84
2023-01-18T02:55:31.298Z,97804.09
2023-01-18T02:58:05.875Z,97798.53
2023-01-18T03:00:37.975Z,97812.78
2023-01-18T03:03:08.069Z,97819.34
2023-01-18T03:05:37.036Z,97816.88
2023-01-18T03:08:18.191Z,97820.41
2023-01-18T03:11:12.003Z,97820.41
2023-01-18T03:14:12.121Z,97827.41
2023-01-18T03:16:56.862Z,97832.16
2023-01-18T03:19:59.268Z,97834.44
2023-01-18T03:22:47.780Z,97824.72
2023-01-18T03:25:18.163Z,97833.81
2023-01-18T03:28:06.654Z,97835.28
2023-01-18T03:30:55.418Z,97833.44
2023-01-18T03:33:42.710Z,97847.03
2023-01-18T03:36:17.011Z,97849.72
2023-01-18T03:38:47.322Z,97847.84
2023-01-18T03:41:16.737Z,97854.25
2023-01-18T03:43:46.724Z,97850.53
2023-01-18T03:46:18.149Z,97849.91
2023-01-18T03:48:44.597Z,97857.13
2023-01-18T03:51:23.152Z,97866.03
2023-01-18T03:54:30.509Z,97866.19
2023-01-18T03:57:07.229Z,97869.91
2023-01-18T03:59:37.378Z,97879.81
2023-01-18T04:02:09.806Z,97868.50
2023-01-18T04:04:36.075Z,97879.81
2023-01-18T04:07:05.671Z,97876.94
2023-01-18T04:09:35.211Z,97888.22
2023-01-18T04:12:01.684Z,97890.28
2023-01-18T04:14:28.048Z,97892.31
2023-01-18T04:16:54.525Z,97900.00
2023-01-18T04:19:21.204Z,97897.69
2023-01-18T04:21:47.621Z,97904.09
2023-01-18T04:24:14.532Z,97904.91
2023-01-18T04:26:41.021Z,97913.53
2023-01-18T04:29:10.608Z,97916.84
2023-01-18T04:31:37.229Z,97910.63
2023-01-18T04:34:03.597Z,97916.22
2023-01-18T04:36:32.656Z,97914.16
2023-01-18T04:38:59.279Z,97913.53
2023-01-18T04:41:28.179Z,97916.22
2023-01-18T04:43:56.945Z,97921.56
2023-01-18T04:46:28.323Z,97927.78
2023-01-18T04:48:54.683Z,97937.28
2023-01-18T04:51:23.880Z,97932.94
2023-01-18T04:53:50.808Z,97944.50
2023-01-18T04:56:20.094Z,97937.47
2023-01-18T04:58:46.677Z,97940.16
2023-01-18T05:01:15.152Z,97949.88
2023-01-18T05:03:41.653Z,97957.09
2023-01-18T05:06:11.015Z,97956.06
2023-01-18T05:08:41.064Z,97968.66
2023-01-18T05:11:10.602Z,97964.94
2023-01-18T05:13:38.504Z,97975.88
2023-01-18T05:16:06.550Z,97971.72
2023-01-18T05:18:33.840Z,97985.31
2023-01-18T05:21:00.341Z,97994.75
2023-01-18T05:23:26.930Z,98005.00
2023-01-18T05:25:57.625Z,98001.50
2023-01-18T05:28:26.065Z,97998.63
2023-01-18T05:30:57.614Z,98004.19
2023-01-18T05:33:26.587Z,98014.09
2023-01-18T05:35:54.938Z,98018.34
2023-01-18T05:38:23.225Z,98030.06
2023-01-18T05:40:54.994Z,98025.09
2023-01-18T05:43:23.271Z,98030.84
2023-01-18T05:45:52.448Z,98031.22
2023-01-18T05:48:19.957Z,98031.59
2023-01-18T05:50:50.064Z,98034.28
2023-01-18T05:53:19.489Z,98040.25
2023-01-18T05:55:59.998Z,98046.84
2023-01-18T05:58:27.682Z,98050.81
2023-01-18T06:00:55.984Z,98056.72
2023-01-18T06:03:23.503Z,98058.56
2023-01-18T06:05:51.522Z,98068.47
2023-01-18T06:08:19.320Z,98077.34
2023-01-18T06:10:53.529Z,98088.06
2023-01-18T06:13:20.783Z,98086.38
2023-01-18T06:15:49.856Z,98092.59
2023-01-18T06:18:18.691Z,98095.94
2023-01-18T06:20:47.459Z,98095.28
2023-01-18T06:23:17.140Z,98107.69
2023-01-18T06:25:43.743Z,98113.03
2023-01-18T06:28:14.878Z,98121.91
2023-01-18T06:30:42.809Z,98120.25
2023-01-18T06:33:10.714Z,98131.81
2023-01-18T06:35:39.998Z,98137.16
2023-01-18T06:38:08.993Z,98137.16
2023-01-18T06:40:38.014Z,98151.59
2023-01-18T06:43:04.559Z,98146.22
2023-01-18T06:45:31.013Z,98145.38
2023-01-18T06:47:57.583Z,98150.09
2023-01-18T06:50:24.060Z,98155.63
2023-01-18T06:52:53.531Z,98165.72
2023-01-18T06:55:20.324Z,98167.75
2023-01-18T06:57:49.162Z,98173.09
2023-01-18T07:00:18.720Z,98179.50
2023-01-18T07:02:45.127Z,98178.19
2023-01-18T07:05:13.858Z,98186.41
2023-01-18T07:07:40.212Z,98192.59
2023-01-18T07:10:07.122Z,98186.56
2023-01-18T07:12:34.080Z,98187.59
2023-01-18T07:15:16.327Z,98201.16
2023-01-18T07:17:46.993Z,98204.06
2023-01-18T07:20:15.744Z,98203.22
2023-01-18T07:22:42.539Z,98206.06
2023-01-18T07:25:13.197Z,98215.09
2023-01-18T07:27:43.638Z,98220.47
2023-01-18T07:30:13.434Z,98220.47
2023-01-18T07:32:48.532Z,98222.50
2023-01-18T07:35:17.111Z,98239.59
2023-01-18T07:37:48.290Z,98242.09
2023-01-18T07:40:16.206Z,98237.38
2023-01-18T07:42:42.766Z,98240.06
2023-01-18T07:45:11.400Z,98247.59
2023-01-18T07:47:39.665Z,98246.09
2023-01-18T07:50:06.460Z,98249.06
2023-01-18T07:52:33.020Z,98256.94
2023-01-18T07:54:59.431Z,98262.63
2023-01-18T07:57:25.932Z,98257.53
2023-01-18T07:59:52.981Z,98267.56
2023-01-18T08:02:21.549Z,98266.00
2023-01-18T08:04:50.008Z,98269.81
2023-01-18T08:07:17.840Z,98276.50
2023-01-18T08:09:44.867Z,98284.19
2023-01-18T08:12:20.009Z,98284.47
2023-01-18T08:14:51.260Z,98295.66
2023-01-18T08:17:17.629Z,98299.84
2023-01-18T08:19:47.038Z,98303.00
2023-01-18T08:22:13.451Z,98311.38
2023-01-18T08:24:42.189Z,98312.84
2023-01-18T08:27:11.137Z,98320.38
2023-01-18T08:29:37.649Z,98313.78
2023-01-18T08:32:04.211Z,98312.41
2023-01-18T08:34:32.992Z,98325.47
2023-01-18T08:36:59.390Z,98338.72
2023-01-18T08:39:25.944Z,98333.81
2023-01-18T08:41:52.366Z,98341.31
2023-01-18T08:44:19.042Z,98349.88
2023-01-18T08:46:47.873Z,98356.72
2023-01-18T08:49:14.488Z,98369.22
2023-01-18T08:51:40.957Z,98368.88
2023-01-18T08:54:07.466Z,98363.13
2023-01-18T08:56:34.243Z,98377.22
2023-01-18T08:59:00.948Z,98369.63
2023-01-18T09:01:27.493Z,98381.56
2023-01-18T09:03:58.258Z,98373.63
2023-01-18T09:06:25.195Z,98376.41
2023-01-18T09:08:51.623Z,98388.47
2023-01-18T09:11:18.674Z,98395.06
2023-01-18T09:13:59.733Z,98397.47
2023-01-18T09:16:27.037Z,98410.59
2023-01-18T09:18:55.328Z,98411.28
2023-01-18T09:21:21.837Z,98408.84
2023-01-18T09:23:49.235Z,98414.44
2023-01-18T09:26:17.335Z,98424.34
2023-01-18T09:28:45.038Z,98430.72
2023-01-18T09:31:14.297Z,98437.13
2023-01-18T09:33:51.222Z,98440.09
2023-01-18T09:36:23.807Z,98454.19
2023-01-18T09:38:50.370Z,98476.03
2023-01-18T09:41:34.093Z,98467.63
2023-01-18T09:44:10.759Z,98467.41
2023-01-18T09:46:40.295Z,98482.06
2023-01-18T09:49:17.031Z,98485.88
2023-01-18T09:51:56.911Z,98478.94
2023-01-18T09:54:44.632Z,98486.94
2023-01-18T09:57:37.798Z,98499.94
2023-01-18T10:00:18.469Z,98505.03
2023-01-18T10:02:48.678Z,98498.38
2023-01-18T10:05:21.489Z,98504.06
2023-01-18T10:08:02.659Z,98512.78
2023-01-18T10:10:44.849Z,98503.59
2023-01-18T10:13:23.011Z,98516.50
2023-01-18T10:15:49.795Z,98513.75
2023-01-18T10:18:18.103Z,98519.38
2023-01-18T10:20:50.650Z,98519.75
2023-01-18T10:23:37.032Z,98522.06
2023-01-18T10:26:20.617Z,98518.00
2023-01-18T10:28:56.234Z,98532.75
2023-01-18T10:31:34.938Z,98527.47
2023-01-18T10:34:04.612Z,98527.28
2023-01-18T10:36:38.843Z,98537.56
2023-01-18T10:39:23.836Z,98556.78
2023-01-18T10:41:51.245Z,98581.78
2023-01-18T10:44:17.720Z,98565.03
2023-01-18T10:46:45.196Z,98573.69
2023-01-18T10:49:39.449Z,98562.25
2023-01-18T10:52:30.609Z,98565.16
2023-01-18T10:55:02.381Z,98555.41
2023-01-18T10:57:32.230Z,98599.97
2023-01-18T11:00:12.374Z,98581.19
2023-01-18T11:02:39.562Z,98594.78
2023-01-18T11:05:30.548Z,98575.22
2023-01-18T11:08:32.670Z,98570.69
2023-01-18T11:10:59.258Z,98593.47
2023-01-18T11:13:47.516Z,98597.81
2023-01-18T11:16:19.353Z,98605.06
2023-01-18T11:19:00.091Z,98593.28
2023-01-18T11:21:44.487Z,98570.31
2023-01-18T11:24:22.000Z,98593.75
2023-01-18T11:27:14.759Z,98579.69
2023-01-18T11:29:42.968Z,98609.78
2023-01-18T11:32:24.321Z,98611.38
2023-01-18T11:34:56.332Z,98660.63
2023-01-18T11:37:36.871Z,98643.63
2023-01-18T11:40:18.294Z,98619.84
2023-01-18T11:42:45.855Z,98637.00
2023-01-18T11:45:25.285Z,98616.56
2023-01-18T11:48:02.290Z,98643.03
2023-01-18T11:50:54.395Z,98631.00
2023-01-18T11:53:31.443Z,98648.44
2023-01-18T11:56:24.489Z,98615.00
2023-01-18T11:58:51.135Z,98660.13
2023-01-18T12:01:47.207Z,98650.66
2023-01-18T12:04:32.882Z,98651.59
2023-01-18T12:07:17.832Z,98649.72
2023-01-18T12:09:59.830Z,98672.50
2023-01-18T12:12:29.407Z,98678.19
2023-01-18T12:15:03.044Z,98672.50
2023-01-18T12:18:01.305Z,98664.59
2023-01-18T12:20:43.617Z,98711.69
2023-01-18T12:23:18.941Z,98679.66
2023-01-18T12:26:06.904Z,98695.44
2023-01-18T12:28:53.621Z,98730.16
2023-01-18T12:31:43.908Z,98710.84
2023-01-18T12:34:30.199Z,98712.34
2023-01-18T12:37:22.917Z,98729.22
2023-01-18T12:39:52.860Z,98775.31
2023-01-18T12:43:07.062Z,98765.56
2023-01-18T12:45:39.131Z,98779.75
2023-01-18T12:48:36.199Z,98772.16
2023-01-18T12:51:11.613Z,98769.56
2023-01-18T12:53:50.658Z,98801.13
2023-01-18T12:56:23.890Z,98807.16
2023-01-18T12:58:56.283Z,98803.09
2023-01-18T13:01:24.634Z,98801.03
2023-01-18T13:03:57.435Z,98785.56
2023-01-18T13:06:28.625Z,98795.97
2023-01-18T13:09:01.021Z,98769.50
2023-01-18T13:11:30.577Z,98769.50
2023-01-18T13:14:29.678Z,98725.84
2023-01-18T13:17:14.851Z,98734.38
2023-01-18T13:19:58.639Z,98735.41
2023-01-18T13:22:39.760Z,98747.47
2023-01-18T13:25:18.615Z,98736.22
2023-01-18T13:28:13.693Z,98740.25
2023-01-18T13:31:03.271Z,98757.63
2023-01-18T13:33:42.275Z,98760.41
2023-01-18T13:36:11.520Z,98781.97
2023-01-18T13:38:49.227Z,98783.66
2023-01-18T13:41:23.509Z,98760.41
2023-01-18T13:43:49.956Z,98749.25
2023-01-18T13:46:26.197Z,98752.13
2023-01-18T13:48:56.384Z,98755.47
2023-01-18T13:51:41.274Z,98756.88
2023-01-18T13:54:14.875Z,98747.78
2023-01-18T13:57:01.300Z,98804.75
2023-01-18T13:59:31.704Z,98818.84
2023-01-18T14:02:18.749Z,98807.06
2023-01-18T14:04:45.489Z,98802.78
2023-01-18T14:07:21.431Z,98838.66
2023-01-18T14:09:49.694Z,98847.59
2023-01-18T14:12:45.902Z,98881.41
2023-01-18T14:15:43.889Z,98901.59
2023-01-18T14:18:27.090Z,98928.19
2023-01-18T14:21:20.745Z,98892.31
2023-01-18T14:24:17.722Z,98897.50
2023-01-18T14:26:45.984Z,98918.06
2023-01-18T14:29:19.073Z,98905.59
2023-01-18T14:31:50.241Z,98909.13
2023-01-18T14:34:28.967Z,98906.59
2023-01-18T14:36:56.345Z,98897.50
2023-01-18T14:39:23.218Z,98914.44
2023-01-18T14:42:00.833Z,98909.88
2023-01-18T14:44:45.802Z,98953.22
2023-01-18T14:47:30.789Z,98957.97
2023-01-18T14:49:57.854Z,98952.75
2023-01-18T14:52:28.897Z,98947.63
2023-01-18T14:54:55.925Z,98982.28
2023-01-18T14:57:24.033Z,98973.41
2023-01-18T14:59:57.278Z,98946.03
2023-01-18T15:02:27.569Z,98935.16
2023-01-18T15:05:17.311Z,98916.53
2023-01-18T15:07:46.376Z,98914.16
2023-01-18T15:10:16.657Z,98919.06
2023-01-18T15:12:47.026Z,98914.25
2023-01-18T15:15:33.136Z,98919.31
2023-01-18T15:18:17.461Z,98912.97
2023-01-18T15:20:55.199Z,98921.03
2023-01-18T15:23:22.925Z,98911.81
2023-01-18T15:25:53.420Z,98901.28
2023-01-18T15:28:23.911Z,98899.59
2023-01-18T15:30:56.102Z,98890.53
2023-01-18T15:33:25.112Z,98908.41
2023-01-18T15:35:56.867Z,98898.69
2023-01-18T15:38:25.879Z,98913.47
2023-01-18T15:41:04.317Z,98911.84
2023-01-18T15:43:35.558Z,98924.44
2023-01-18T15:46:05.061Z,98935.56
2023-01-18T15:48:49.307Z,98932.38
2023-01-18T15:51:15.899Z,98947.34
2023-01-18T15:53:49.067Z,98923.69
2023-01-18T15:56:18.150Z,98917.16
2023-01-18T15:58:57.081Z,98930.94
2023-01-18T16:01:36.561Z,98934.00
2023-01-18T16:04:09.124Z,98934.50
2023-01-18T16:06:37.384Z,98923.44
2023-01-18T16:09:10.558Z,98939.53
2023-01-18T16:11:41.211Z,98937.66
2023-01-18T16:14:30.911Z,98934.47
2023-01-18T16:16:57.461Z,98949.88
2023-01-18T16:19:29.031Z,98949.53
2023-01-18T16:22:01.367Z,98958.88
2023-01-18T16:24:33.566Z,98961.16
2023-01-18T16:27:07.272Z,98957.63
2023-01-18T16:29:50.074Z,98977.81
2023-01-18T16:32:30.221Z,98982.47
2023-01-18T16:34:58.175Z,98980.44
2023-01-18T16:37:24.989Z,98983.72
2023-01-18T16:39:54.454Z,98994.25
2023-01-18T16:42:29.664Z,98997.84
2023-01-18T16:45:14.891Z,99006.06
2023-01-18T16:47:41.366Z,99005.38
2023-01-18T16:50:15.558Z,99012.53
2023-01-18T16:52:42.041Z,99024.00
2023-01-18T16:55:11.525Z,99024.47
2023-01-18T16:57:37.952Z,99026.63
2023-01-18T17:00:16.920Z,99028.91
2023-01-18T17:02:45.894Z,99033.34
2023-01-18T17:05:14.005Z,99036.09
2023-01-18T17:07:40.661Z,99032.19
2023-01-18T17:10:36.343Z,99047.03
2023-01-18T17:13:03.131Z,99057.53
2023-01-18T17:15:34.616Z,99056.28
2023-01-18T17:18:02.251Z,99063.94
2023-01-18T17:20:32.647Z,99057.88
2023-01-18T17:23:01.072Z,99070.03
2023-01-18T17:25:32.962Z,99079.34
2023-01-18T17:28:00.919Z,99074.03
2023-01-18T17:30:27.745Z,99081.38
2023-01-18T17:32:54.392Z,99082.78
2023-01-18T17:35:23.012Z,99092.53
2023-01-18T17:37:54.516Z,99101.59
2023-01-18T17:40:38.716Z,99100.88
2023-01-18T17:43:07.763Z,99105.84
2023-01-18T17:45:37.209Z,99105.13
2023-01-18T17:48:03.742Z,99114.44
2023-01-18T17:50:30.237Z,99108.94
2023-01-18T17:52:57.777Z,99115.31
2023-01-18T17:55:34.001Z,99119.94
2023-01-18T17:58:01.303Z,99124.19
2023-01-18T18:00:27.764Z,99125.59
2023-01-18T18:02:56.902Z,99130.53
2023-01-18T18:05:23.765Z,99141.94
2023-01-18T18:07:50.247Z,99146.59
2023-01-18T18:10:19.999Z,99142.38
2023-01-18T18:12:46.622Z,99148.00
2023-01-18T18:15:15.479Z,99147.88
2023-01-18T18:17:41.862Z,99156.03
2023-01-18T18:20:10.798Z,99149.84
2023-01-18T18:22:37.708Z,99151.28
2023-01-18T18:25:06.564Z,99164.06
2023-01-18T18:27:45.320Z,99161.66
2023-01-18T18:30:13.072Z,99165.59
2023-01-18T18:32:39.883Z,99161.81
2023-01-18T18:35:23.247Z,99170.41
2023-01-18T18:37:51.468Z,99182.91
2023-01-18T18:40:18.815Z,99170.81
2023-01-18T18:42:59.910Z,99181.50
2023-01-18T18:45:30.405Z,99185.56
2023-01-18T18:47:59.111Z,99189.50
2023-01-18T18:50:28.148Z,99200.47
2023-01-18T18:52:54.824Z,99207.34
2023-01-18T18:55:21.507Z,99205.81
2023-01-18T18:57:47.962Z,99210.41
2023-01-18T19:00:17.278Z,99211.66
2023-01-18T19:02:46.102Z,99210.53
2023-01-18T19:05:12.580Z,99225.59
2023-01-18T19:07:42.841Z,99213.50
2023-01-18T19:10:11.426Z,99214.75
2023-01-18T19:12:40.405Z,99230.75
2023-01-18T19:15:09.869Z,99231.91
2023-01-18T19:17:37.402Z,99230.88
2023-01-18T19:20:05.507Z,99240.47
2023-01-18T19:22:31.988Z,99243.81
2023-01-18T19:24:59.768Z,99247.22
2023-01-18T19:27:26.173Z,99248.19
2023-01-18T19:29:53.372Z,99249.00
2023-01-18T19:32:20.227Z,99246.19
2023-01-18T19:34:46.705Z,99257.28
2023-01-18T19:37:13.263Z,99260.91
2023-01-18T19:39:39.856Z,99259.81
2023-01-18T19:42:06.902Z,99262.03
2023-01-18T19:44:38.082Z,99265.56
2023-01-18T19:47:04.614Z,99260.78
2023-01-18T19:49:31.063Z,99269.88
2023-01-18T19:52:00.653Z,99261.84
2023-01-18T19:54:27.078Z,99273.38
2023-01-18T19:56:53.453Z,99277.44
2023-01-18T19:59:19.895Z,99271.97
2023-01-18T20:01:46.592Z,99283.19
2023-01-18T20:04:13.419Z,99279.38
2023-01-18T20:06:46.136Z,99284.03
2023-01-18T20:09:19.852Z,99297.59
2023-01-18T20:11:47.484Z,99293.97
2023-01-18T20:14:14.474Z,99296.06
2023-01-18T20:16:40.977Z,99313.31
2023-01-18T20:19:07.464Z,99315.13
2023-01-18T20:21:33.873Z,99314.63
2023-01-18T20:24:00.922Z,99304.03
2023-01-18T20:26:36.491Z,99307.00
2023-01-18T20:29:08.368Z,99318.47
2023-01-18T20:31:37.041Z,99318.88
2023-01-18T20:34:06.499Z,99329.22
2023-01-18T20:36:36.610Z,99329.78
2023-01-18T20:39:04.347Z,99331.84
2023-01-18T20:41:30.951Z,99336.47
2023-01-18T20:43:57.535Z,99332.25
2023-01-18T20:46:24.043Z,99339.00
2023-01-18T20:48:50.447Z,99348.13
2023-01-18T20:51:17.872Z,99344.06
2023-01-18T20:53:44.401Z,99352.94
2023-01-18T20:56:27.758Z,99360.63
2023-01-18T20:58:55.669Z,99362.13
2023-01-18T21:01:22.448Z,99372.53
2023-01-18T21:03:57.624Z,99369.38
2023-01-18T21:06:25.006Z,99374.72
2023-01-18T21:08:55.572Z,99372.78
2023-01-18T21:11:28.176Z,99380.91
2023-01-18T21:13:55.809Z,99389.88
2023-01-18T21:16:23.505Z,99383.09
2023-01-18T21:18:52.770Z,99392.34
2023-01-18T21:21:20.305Z,99398.25
2023-01-18T21:23:47.081Z,99398.78
2023-01-18T21:26:16.075Z,99402.56
2023-01-18T21:28:42.580Z,99404.25
2023-01-18T21:31:09.032Z,99396.75
2023-01-18T21:33:35.502Z,99410.69
2023-01-18T21:36:06.803Z,99398.19
2023-01-18T21:38:33.807Z,99404.50
2023-01-18T21:41:20.441Z,99406.81
2023-01-18T21:44:05.860Z,99411.06
2023-01-18T21:46:35.061Z,99410.22
2023-01-18T21:49:07.397Z,99416.91
2023-01-18T21:51:52.507Z,99410.47
2023-01-18T21:54:21.934Z,99404.69
2023-01-18T21:56:52.746Z,99416.56
2023-01-18T21:59:19.206Z,99414.28
2023-01-18T22:01:47.035Z,99414.53
2023-01-18T22:04:33.894Z,99421.69
2023-01-18T22:07:00.728Z,99423.75
2023-01-18T22:09:28.656Z,99422.06
2023-01-18T22:12:01.400Z,99417.84
2023-01-18T22:14:30.840Z,99425.09
2023-01-18T22:16:57.583Z,99425.94
2023-01-18T22:19:24.231Z,99433.69
2023-01-18T22:21:51.117Z,99436.34
2023-01-18T22:24:18.312Z,99438.03
2023-01-18T22:26:45.876Z,99435.25
2023-01-18T22:29:15.665Z,99446.56
2023-01-18T22:31:42.381Z,99448.97
2023-01-18T22:34:15.876Z,99460.84
2023-01-18T22:36:47.000Z,99462.41
2023-01-18T22:39:13.983Z,99460.81
2023-01-18T22:41:40.499Z,99462.78
2023-01-18T22:44:06.869Z,99462.25
2023-01-18T22:46:33.719Z,99468.88
2023-01-18T22:49:00.544Z,99471.09
2023-01-18T22:51:29.151Z,99483.41
2023-01-18T22:53:56.363Z,99480.53
2023-01-18T22:56:25.119Z,99477.72
2023-01-18T22:58:54.061Z,99484.63
2023-01-18T23:01:30.538Z,99481.97
2023-01-18T23:04:00.019Z,99480.69
2023-01-18T23:06:28.322Z,99483.63
2023-01-18T23:08:56.535Z,99482.94
2023-01-18T23:11:25.799Z,99490.84
2023-01-18T23:14:13.753Z,99490.22
2023-01-18T23:16:59.310Z,99489.25
2023-01-18T23:19:28.855Z,99491.44
2023-01-18T23:21:56.291Z,99491.28
2023-01-18T23:24:23.214Z,99492.06
2023-01-18T23:26:50.549Z,99491.88
2023-01-18T23:29:17.704Z,99493.03
2023-01-18T23:31:46.829Z,99493.84
2023-01-18T23:34:13.757Z,99491.03
2023-01-18T23:36:42.889Z,99493.50
2023-01-18T23:39:28.490Z,99493.56
2023-01-18T23:42:13.573Z,99497.22
2023-01-18T23:44:59.155Z,99495.84
2023-01-18T23:47:44.459Z,99500.66
2023-01-18T23:50:29.870Z,99499.53
2023-01-18T23:53:17.413Z,99496.97
2023-01-18T23:55:46.458Z,99505.56
2023-01-18T23:58:13.169Z,99508.13
